createdAt,value
2017-06-25T00:01:02.011Z,17.40
2017-06-25T00:03:29.528Z,20.83
2017-06-25T00:05:55.944Z,22.53
2017-06-25T00:08:22.404Z,22.13
2017-06-25T00:10:48.861Z,18.67
2017-06-25T00:13:15.265Z,25.40
2017-06-25T00:15:41.699Z,23.07
2017-06-25T00:18:08.153Z,19.27
2017-06-25T00:20:34.568Z,21.67
2017-06-25T00:23:00.982Z,20.77
2017-06-25T00:25:27.404Z,18.63
2017-06-25T00:27:54.589Z,15.37
2017-06-25T00:30:21.055Z,18.67
2017-06-25T00:32:47.468Z,19.10
2017-06-25T00:35:14.026Z,19.97
2017-06-25T00:37:40.587Z,14.77
2017-06-25T00:40:07.000Z,13.17
2017-06-25T00:42:33.729Z,18.03
2017-06-25T00:45:00.146Z,15.53
2017-06-25T00:47:26.644Z,12.33
2017-06-25T00:49:53.080Z,11.60
2017-06-25T00:52:19.690Z,13.60
2017-06-25T00:54:46.176Z,11.37
2017-06-25T00:57:13.321Z,11.97
2017-06-25T00:59:39.767Z,12.60
2017-06-25T01:02:06.185Z,8.63
2017-06-25T01:04:32.590Z,7.20
2017-06-25T01:06:59.728Z,7.20
2017-06-25T01:09:26.215Z,6.60
2017-06-25T01:11:52.691Z,6.53
2017-06-25T01:14:19.109Z,5.90
2017-06-25T01:16:45.512Z,6.60
2017-06-25T01:19:12.686Z,7.13
2017-06-25T01:21:39.125Z,8.00
2017-06-25T01:24:05.547Z,6.43
2017-06-25T01:26:31.929Z,6.50
2017-06-25T01:28:58.335Z,7.00
2017-06-25T01:31:25.540Z,9.03
2017-06-25T01:33:52.688Z,7.70
2017-06-25T01:36:19.906Z,8.00
2017-06-25T01:38:46.388Z,7.93
2017-06-25T01:41:12.835Z,7.57
2017-06-25T01:43:39.988Z,7.33
2017-06-25T01:46:06.426Z,7.83
2017-06-25T01:48:32.864Z,7.60
2017-06-25T01:50:59.318Z,9.03
2017-06-25T01:53:25.730Z,8.93
2017-06-25T01:55:52.195Z,10.53
2017-06-25T01:58:18.700Z,9.97
2017-06-25T02:00:45.131Z,9.83
2017-06-25T02:03:11.567Z,17.27
2017-06-25T02:05:38.351Z,10.80
2017-06-25T02:08:05.549Z,11.33
2017-06-25T02:10:32.005Z,9.97
2017-06-25T02:12:58.443Z,9.17
2017-06-25T02:15:24.835Z,8.97
2017-06-25T02:17:51.252Z,10.63
2017-06-25T02:20:17.684Z,11.20
2017-06-25T02:22:44.088Z,8.50
2017-06-25T02:25:10.537Z,9.97
2017-06-25T02:27:38.243Z,10.83
2017-06-25T02:30:04.671Z,6.00
2017-06-25T02:32:31.079Z,5.90
2017-06-25T02:34:57.506Z,5.40
2017-06-25T02:37:23.929Z,4.50
2017-06-25T02:39:50.381Z,3.77
2017-06-25T02:42:16.838Z,2.93
2017-06-25T02:44:43.968Z,3.57
2017-06-25T02:47:10.388Z,2.60
2017-06-25T02:49:36.829Z,3.40
2017-06-25T02:52:03.199Z,3.07
2017-06-25T02:54:29.629Z,2.90
2017-06-25T02:56:56.035Z,3.00
2017-06-25T02:59:23.216Z,7.73
2017-06-25T03:01:49.636Z,4.10
2017-06-25T03:04:16.053Z,2.97
2017-06-25T03:06:42.617Z,3.60
2017-06-25T03:09:21.176Z,2.63
2017-06-25T03:11:47.628Z,5.27
2017-06-25T03:14:14.060Z,2.80
2017-06-25T03:16:41.207Z,2.57
2017-06-25T03:19:07.641Z,2.47
2017-06-25T03:21:34.820Z,2.97
2017-06-25T03:24:01.243Z,3.07
2017-06-25T03:26:27.700Z,2.93
2017-06-25T03:28:54.168Z,3.97
2017-06-25T03:31:21.017Z,3.43
2017-06-25T03:33:47.427Z,3.20
2017-06-25T03:36:13.872Z,5.20
2017-06-25T03:38:40.367Z,4.57
2017-06-25T03:41:06.791Z,5.80
2017-06-25T03:43:33.241Z,3.80
2017-06-25T03:45:59.693Z,3.60
2017-06-25T03:48:26.181Z,3.80
2017-06-25T03:50:53.340Z,3.70
2017-06-25T03:53:19.787Z,3.63
2017-06-25T03:55:46.252Z,4.23
2017-06-25T03:58:12.688Z,3.17
2017-06-25T04:00:39.112Z,3.17
2017-06-25T04:03:06.292Z,2.90
2017-06-25T04:05:32.717Z,3.27
2017-06-25T04:07:59.151Z,3.80
2017-06-25T04:10:25.605Z,3.37
2017-06-25T04:12:52.050Z,2.27
2017-06-25T04:15:18.495Z,2.63
2017-06-25T04:17:45.677Z,3.30
2017-06-25T04:20:12.117Z,2.10
2017-06-25T04:22:38.536Z,2.40
2017-06-25T04:25:05.328Z,1.90
2017-06-25T04:27:31.724Z,3.63
2017-06-25T04:29:58.163Z,2.27
2017-06-25T04:32:24.584Z,1.93
2017-06-25T04:34:51.016Z,2.10
2017-06-25T04:37:17.412Z,2.20
2017-06-25T04:39:43.845Z,2.10
2017-06-25T04:42:10.272Z,2.80
2017-06-25T04:44:36.684Z,2.20
2017-06-25T04:47:03.112Z,5.80
2017-06-25T04:49:29.505Z,2.60
2017-06-25T04:51:56.683Z,2.50
2017-06-25T04:54:23.147Z,3.50
2017-06-25T04:56:49.569Z,2.90
2017-06-25T04:59:15.989Z,4.03
2017-06-25T05:01:42.427Z,3.50
2017-06-25T05:04:09.368Z,5.87
2017-06-25T05:06:35.830Z,4.20
2017-06-25T05:09:02.294Z,3.60
2017-06-25T05:11:28.788Z,4.50
2017-06-25T05:13:55.233Z,5.23
2017-06-25T05:16:21.661Z,6.63
2017-06-25T05:18:48.103Z,3.90
2017-06-25T05:21:14.566Z,4.50
2017-06-25T05:23:41.409Z,4.73
2017-06-25T05:26:07.867Z,6.63
2017-06-25T05:28:34.283Z,4.37
2017-06-25T05:31:01.470Z,7.10
2017-06-25T05:33:27.897Z,6.77
2017-06-25T05:35:54.399Z,6.80
2017-06-25T05:38:20.879Z,7.10
2017-06-25T05:40:47.268Z,8.33
2017-06-25T05:43:13.684Z,10.13
2017-06-25T05:45:40.139Z,8.20
2017-06-25T05:48:06.619Z,10.43
2017-06-25T05:50:33.063Z,6.93
2017-06-25T05:53:00.236Z,7.80
2017-06-25T05:55:26.653Z,6.70
2017-06-25T05:57:53.111Z,5.20
2017-06-25T06:00:19.571Z,7.40
2017-06-25T06:02:46.752Z,5.40
2017-06-25T06:05:13.176Z,5.83
2017-06-25T06:07:39.604Z,5.20
2017-06-25T06:10:06.037Z,7.60
2017-06-25T06:12:32.464Z,5.30
2017-06-25T06:14:58.892Z,5.57
2017-06-25T06:17:26.076Z,5.10
2017-06-25T06:19:52.480Z,4.80
2017-06-25T06:22:19.715Z,4.00
2017-06-25T06:24:46.140Z,4.20
2017-06-25T06:27:12.564Z,5.10
2017-06-25T06:29:38.977Z,5.13
2017-06-25T06:32:05.445Z,4.87
2017-06-25T06:34:31.889Z,6.60
2017-06-25T06:36:58.384Z,6.57
2017-06-25T06:39:24.816Z,5.57
2017-06-25T06:41:51.223Z,7.10
2017-06-25T06:44:17.630Z,6.63
2017-06-25T06:46:44.071Z,5.80
2017-06-25T06:49:10.492Z,6.87
2017-06-25T06:51:36.911Z,7.20
2017-06-25T06:54:03.638Z,6.20
2017-06-25T06:56:30.084Z,7.67
2017-06-25T06:58:56.512Z,6.83
2017-06-25T07:01:23.001Z,8.83
2017-06-25T07:03:50.180Z,6.80
2017-06-25T07:06:16.613Z,6.77
2017-06-25T07:08:43.076Z,5.33
2017-06-25T07:11:09.576Z,5.13
2017-06-25T07:13:36.659Z,4.30
2017-06-25T07:16:03.167Z,4.10
2017-06-25T07:18:29.612Z,4.27
2017-06-25T07:20:56.185Z,3.70
2017-06-25T07:23:22.663Z,4.87
2017-06-25T07:25:50.246Z,4.70
2017-06-25T07:28:16.682Z,5.03
2017-06-25T07:30:43.112Z,4.30
2017-06-25T07:33:10.022Z,4.90
2017-06-25T07:35:36.444Z,4.70
2017-06-25T07:38:02.912Z,6.90
2017-06-25T07:40:29.380Z,5.60
2017-06-25T07:42:57.171Z,5.23
2017-06-25T07:45:23.624Z,5.10
2017-06-25T07:47:50.036Z,5.07
2017-06-25T07:50:16.587Z,6.43
2017-06-25T07:52:43.110Z,5.50
2017-06-25T07:55:09.648Z,6.03
2017-06-25T07:57:36.080Z,6.43
2017-06-25T08:00:02.551Z,5.93
2017-06-25T08:02:29.731Z,5.70
2017-06-25T08:04:56.119Z,5.67
2017-06-25T08:07:23.291Z,6.50
2017-06-25T08:09:49.736Z,6.90
2017-06-25T08:12:16.262Z,6.20
2017-06-25T08:14:42.669Z,6.97
2017-06-25T08:17:10.177Z,7.43
2017-06-25T08:19:36.660Z,11.70
2017-06-25T08:22:04.791Z,7.30
2017-06-25T08:24:31.244Z,8.20
2017-06-25T08:26:59.509Z,8.80
2017-06-25T08:29:25.914Z,8.20
2017-06-25T08:31:53.120Z,8.03
2017-06-25T08:34:20.145Z,7.80
2017-06-25T08:36:46.600Z,8.10
2017-06-25T08:39:13.019Z,8.90
2017-06-25T08:41:39.463Z,7.33
2017-06-25T08:44:05.871Z,7.43
2017-06-25T08:46:32.321Z,7.70
2017-06-25T08:48:59.469Z,6.93
2017-06-25T08:51:26.612Z,6.40
2017-06-25T08:53:54.260Z,8.13
2017-06-25T08:56:20.733Z,8.47
2017-06-25T08:58:47.168Z,7.97
2017-06-25T09:01:14.052Z,9.80
2017-06-25T09:03:40.547Z,7.80
2017-06-25T09:06:06.994Z,7.90
2017-06-25T09:08:33.440Z,6.73
2017-06-25T09:10:59.855Z,9.53
2017-06-25T09:13:26.288Z,7.87
2017-06-25T09:15:53.438Z,15.83
2017-06-25T09:18:19.882Z,7.60
2017-06-25T09:20:46.324Z,7.93
2017-06-25T09:23:12.961Z,9.20
2017-06-25T09:25:39.387Z,8.40
2017-06-25T09:28:05.809Z,8.00
2017-06-25T09:30:32.253Z,8.17
2017-06-25T09:32:58.665Z,7.80
2017-06-25T09:35:26.321Z,8.30
2017-06-25T09:37:52.751Z,6.70
2017-06-25T09:40:19.905Z,7.03
2017-06-25T09:42:46.345Z,7.80
2017-06-25T09:45:13.540Z,7.70
2017-06-25T09:47:40.023Z,8.93
2017-06-25T09:50:06.436Z,8.13
2017-06-25T09:52:33.868Z,8.60
2017-06-25T09:55:00.282Z,8.60
2017-06-25T09:57:26.715Z,7.77
2017-06-25T09:59:53.097Z,6.30
2017-06-25T10:02:19.486Z,6.43
2017-06-25T10:04:45.889Z,7.40
2017-06-25T10:07:12.344Z,9.43
2017-06-25T10:09:38.752Z,6.50
2017-06-25T10:12:05.171Z,6.97
2017-06-25T10:14:31.562Z,7.27
2017-06-25T10:16:57.956Z,6.93
2017-06-25T10:19:24.464Z,8.33
2017-06-25T10:21:51.640Z,8.20
2017-06-25T10:24:18.051Z,8.67
2017-06-25T10:26:44.456Z,12.00
2017-06-25T10:29:10.853Z,9.27
2017-06-25T10:31:37.276Z,9.70
2017-06-25T10:34:03.709Z,9.67
2017-06-25T10:36:30.148Z,9.80
2017-06-25T10:38:56.656Z,11.20
2017-06-25T10:41:23.073Z,12.07
2017-06-25T10:43:49.492Z,11.70
2017-06-25T10:46:15.936Z,12.47
2017-06-25T10:48:42.353Z,12.43
2017-06-25T10:51:08.801Z,13.10
2017-06-25T10:53:35.203Z,12.93
2017-06-25T10:56:01.669Z,12.37
2017-06-25T10:58:28.060Z,12.03
2017-06-25T11:00:54.571Z,11.90
2017-06-25T11:03:21.708Z,11.57
2017-06-25T11:05:48.134Z,11.63
2017-06-25T11:08:14.532Z,12.67
2017-06-25T11:10:40.992Z,11.77
2017-06-25T11:13:07.448Z,11.23
2017-06-25T11:15:33.948Z,11.67
2017-06-25T11:18:00.617Z,11.73
2017-06-25T11:20:27.066Z,11.17
2017-06-25T11:22:53.516Z,10.67
2017-06-25T11:25:20.436Z,9.87
2017-06-25T11:27:46.903Z,10.30
2017-06-25T11:30:13.371Z,11.23
2017-06-25T11:32:39.768Z,11.37
2017-06-25T11:35:11.140Z,12.60
2017-06-25T11:37:38.403Z,12.87
2017-06-25T11:40:04.873Z,11.40
2017-06-25T11:42:31.287Z,11.00
2017-06-25T11:44:57.776Z,13.13
2017-06-25T11:47:24.199Z,13.93
2017-06-25T11:49:50.624Z,12.50
2017-06-25T11:52:17.081Z,14.03
2017-06-25T11:54:45.642Z,14.10
2017-06-25T11:57:12.267Z,11.60
2017-06-25T11:59:38.660Z,12.53
2017-06-25T12:02:05.088Z,11.80
2017-06-25T12:04:46.163Z,11.20
2017-06-25T12:07:12.592Z,10.57
2017-06-25T12:09:39.004Z,10.67
2017-06-25T12:12:05.521Z,10.60
2017-06-25T12:14:31.945Z,9.60
2017-06-25T12:16:58.369Z,9.00
2017-06-25T12:19:24.775Z,10.80
2017-06-25T12:21:51.206Z,12.83
2017-06-25T12:24:17.829Z,9.13
2017-06-25T12:26:44.260Z,7.93
2017-06-25T12:29:10.779Z,8.27
2017-06-25T12:31:37.217Z,9.63
2017-06-25T12:34:03.659Z,7.93
2017-06-25T12:36:30.077Z,9.23
2017-06-25T12:38:56.613Z,8.60
2017-06-25T12:41:23.115Z,8.87
2017-06-25T12:43:51.121Z,9.07
2017-06-25T12:46:17.986Z,8.23
2017-06-25T12:48:44.767Z,7.70
2017-06-25T12:51:11.431Z,8.87
2017-06-25T12:53:38.616Z,8.27
2017-06-25T12:56:05.113Z,7.43
2017-06-25T12:58:31.561Z,7.63
2017-06-25T13:00:58.027Z,11.13
2017-06-25T13:03:24.440Z,7.03
2017-06-25T13:05:50.877Z,6.70
2017-06-25T13:08:17.314Z,6.63
2017-06-25T13:10:43.758Z,8.10
2017-06-25T13:13:10.220Z,11.27
2017-06-25T13:15:36.646Z,8.43
2017-06-25T13:18:03.107Z,7.40
2017-06-25T13:20:30.332Z,7.93
2017-06-25T13:22:56.772Z,8.67
2017-06-25T13:25:23.267Z,6.47
2017-06-25T13:27:49.672Z,6.60
2017-06-25T13:30:16.196Z,7.97
2017-06-25T13:32:42.621Z,8.10
2017-06-25T13:35:09.049Z,14.03
2017-06-25T13:37:35.515Z,13.10
2017-06-25T13:40:01.933Z,11.83
2017-06-25T13:42:28.384Z,9.70
2017-06-25T13:44:54.837Z,10.63
2017-06-25T13:47:21.251Z,10.33
2017-06-25T13:49:47.645Z,12.90
2017-06-25T13:52:14.051Z,10.43
2017-06-25T13:54:40.467Z,9.70
2017-06-25T13:57:06.930Z,12.37
2017-06-25T13:59:33.404Z,13.10
2017-06-25T14:01:59.839Z,11.70
2017-06-25T14:04:26.309Z,11.10
2017-06-25T14:06:52.766Z,11.80
2017-06-25T14:09:19.204Z,8.93
2017-06-25T14:11:45.771Z,10.43
2017-06-25T14:14:12.213Z,9.03
2017-06-25T14:16:38.705Z,10.57
2017-06-25T14:19:05.184Z,10.90
2017-06-25T14:21:31.600Z,8.07
2017-06-25T14:23:58.008Z,8.60
2017-06-25T14:26:24.431Z,8.43
2017-06-25T14:28:50.860Z,10.00
2017-06-25T14:31:17.356Z,10.93
2017-06-25T14:33:43.806Z,7.57
2017-06-25T14:36:10.223Z,8.50
2017-06-25T14:38:37.460Z,9.43
2017-06-25T14:41:03.903Z,10.73
2017-06-25T14:43:30.332Z,8.93
2017-06-25T14:45:56.749Z,9.00
2017-06-25T14:48:23.169Z,8.40
2017-06-25T14:50:49.586Z,10.50
2017-06-25T14:53:16.011Z,7.53
2017-06-25T14:55:42.435Z,9.80
2017-06-25T14:58:08.963Z,9.73
2017-06-25T15:00:35.404Z,9.10
2017-06-25T15:03:01.948Z,8.97
2017-06-25T15:05:28.359Z,9.43
2017-06-25T15:07:54.917Z,8.93
2017-06-25T15:10:21.353Z,11.33
2017-06-25T15:12:47.866Z,10.93
2017-06-25T15:15:14.363Z,10.20
2017-06-25T15:17:40.781Z,11.23
2017-06-25T15:20:07.224Z,13.43
2017-06-25T15:22:33.585Z,9.37
2017-06-25T15:25:00.105Z,10.90
2017-06-25T15:27:26.559Z,14.00
2017-06-25T15:29:53.044Z,10.40
2017-06-25T15:32:19.464Z,12.00
2017-06-25T15:34:45.863Z,14.37
2017-06-25T15:37:12.298Z,10.53
2017-06-25T15:39:38.764Z,38.17
2017-06-25T15:42:05.233Z,18.50
2017-06-25T15:44:31.709Z,70.37
2017-06-25T15:46:58.163Z,13.83
2017-06-25T15:49:24.603Z,12.43
2017-06-25T15:51:51.041Z,69.67
2017-06-25T15:54:17.691Z,11.60
2017-06-25T15:56:44.136Z,13.23
2017-06-25T15:59:11.373Z,15.20
2017-06-25T16:01:37.836Z,22.13
2017-06-25T16:04:04.299Z,20.17
2017-06-25T16:06:32.425Z,38.27
2017-06-25T16:09:00.897Z,64.47
2017-06-25T16:11:27.769Z,48.37
2017-06-25T16:13:54.154Z,11.10
2017-06-25T16:16:21.384Z,89.23
2017-06-25T16:18:47.836Z,24.43
2017-06-25T16:21:14.226Z,17.10
2017-06-25T16:23:54.149Z,47.33
2017-06-25T16:26:20.618Z,15.63
2017-06-25T16:28:47.201Z,9.40
2017-06-25T16:31:18.038Z,11.40
2017-06-25T16:33:44.604Z,17.40
2017-06-25T16:36:11.263Z,25.80
2017-06-25T16:38:37.713Z,17.93
2017-06-25T16:41:08.085Z,71.27
2017-06-25T16:43:34.571Z,54.13
2017-06-25T16:46:00.994Z,11.67
2017-06-25T16:48:28.156Z,10.87
2017-06-25T16:50:54.560Z,124.30
2017-06-25T16:53:21.061Z,13.03
2017-06-25T16:55:47.481Z,118.87
2017-06-25T16:58:13.879Z,820.87
2017-06-25T17:00:44.247Z,464.60
2017-06-25T17:03:10.677Z,528.23
2017-06-25T17:05:37.129Z,479.40
2017-06-25T17:08:03.549Z,260.17
2017-06-25T17:10:29.968Z,124.30
2017-06-25T17:13:00.507Z,37.83
2017-06-25T17:15:26.944Z,27.03
2017-06-25T17:17:53.350Z,10.03
2017-06-25T17:20:19.785Z,12.17
2017-06-25T17:22:46.249Z,8.67
2017-06-25T17:25:12.664Z,13.53
2017-06-25T17:27:39.817Z,6.30
2017-06-25T17:30:08.388Z,5.80
2017-06-25T17:32:35.566Z,5.43
2017-06-25T17:35:02.763Z,5.83
2017-06-25T17:37:29.259Z,5.13
2017-06-25T17:39:55.819Z,4.27
2017-06-25T17:42:22.268Z,3.73
2017-06-25T17:44:48.736Z,5.47
2017-06-25T17:47:15.232Z,3.50
2017-06-25T17:49:43.043Z,4.87
2017-06-25T17:52:09.493Z,7.20
2017-06-25T17:54:35.893Z,5.03
2017-06-25T17:57:02.508Z,4.30
2017-06-25T17:59:28.925Z,6.40
2017-06-25T18:01:55.531Z,3.47
2017-06-25T18:04:22.012Z,3.70
2017-06-25T18:06:48.431Z,5.43
2017-06-25T18:09:14.868Z,2.90
2017-06-25T18:11:41.292Z,3.30
2017-06-25T18:14:07.810Z,3.00
2017-06-25T18:16:34.206Z,5.70
2017-06-25T18:19:00.839Z,4.83
2017-06-25T18:21:27.255Z,3.83
2017-06-25T18:23:54.096Z,5.93
2017-06-25T18:26:20.519Z,2.83
2017-06-25T18:28:46.996Z,2.93
2017-06-25T18:31:14.213Z,3.20
2017-06-25T18:33:40.720Z,3.10
2017-06-25T18:36:07.337Z,6.27
2017-06-25T18:38:33.790Z,3.10
2017-06-25T18:41:00.240Z,2.60
2017-06-25T18:43:26.785Z,2.60
2017-06-25T18:46:12.638Z,3.83
2017-06-25T18:48:45.581Z,3.60
2017-06-25T18:51:12.000Z,7.10
2017-06-25T18:53:38.635Z,27.97
2017-06-25T18:56:05.084Z,17.13
2017-06-25T18:58:31.534Z,32.33
2017-06-25T19:00:57.946Z,23.77
2017-06-25T19:03:24.371Z,6.10
2017-06-25T19:05:50.792Z,3.67
2017-06-25T19:08:17.183Z,4.67
2017-06-25T19:10:43.629Z,4.23
2017-06-25T19:13:10.080Z,3.33
2017-06-25T19:15:36.580Z,3.83
2017-06-25T19:18:02.983Z,3.33
2017-06-25T19:20:29.432Z,2.80
2017-06-25T19:22:56.590Z,4.83
2017-06-25T19:25:23.041Z,4.10
2017-06-25T19:27:49.440Z,4.70
2017-06-25T19:30:15.883Z,3.30
2017-06-25T19:32:42.304Z,3.03
2017-06-25T19:35:08.788Z,3.03
2017-06-25T19:37:35.205Z,5.97
2017-06-25T19:40:02.269Z,2.83
2017-06-25T19:42:28.716Z,2.90
2017-06-25T19:44:56.049Z,2.53
2017-06-25T19:47:22.560Z,3.00
2017-06-25T19:49:49.715Z,3.03
2017-06-25T19:52:16.340Z,4.13
2017-06-25T19:54:42.889Z,3.13
2017-06-25T19:57:09.453Z,4.27
2017-06-25T19:59:35.861Z,2.20
2017-06-25T20:02:02.895Z,4.40
2017-06-25T20:04:30.282Z,5.10
2017-06-25T20:06:57.272Z,3.53
2017-06-25T20:09:23.731Z,3.10
2017-06-25T20:11:50.910Z,4.30
2017-06-25T20:14:18.149Z,5.17
2017-06-25T20:16:44.851Z,5.87
2017-06-25T20:19:11.287Z,8.47
2017-06-25T20:21:37.841Z,8.40
2017-06-25T20:24:04.873Z,12.13
2017-06-25T20:26:31.409Z,9.63
2017-06-25T20:28:58.624Z,12.57
2017-06-25T20:31:25.049Z,7.90
2017-06-25T20:33:51.529Z,15.13
2017-06-25T20:36:18.092Z,8.80
2017-06-25T20:38:45.239Z,8.03
2017-06-25T20:41:11.664Z,11.90
2017-06-25T20:43:38.149Z,9.73
2017-06-25T20:46:04.640Z,9.80
2017-06-25T20:48:31.057Z,8.97
2017-06-25T20:50:58.363Z,10.23
2017-06-25T20:53:25.615Z,10.27
2017-06-25T20:55:52.069Z,8.40
2017-06-25T20:58:18.488Z,8.97
2017-06-25T21:00:44.937Z,8.67
2017-06-25T21:03:11.388Z,10.80
2017-06-25T21:05:38.571Z,9.00
2017-06-25T21:08:05.545Z,9.80
2017-06-25T21:10:31.996Z,8.87
2017-06-25T21:12:58.552Z,10.10
2017-06-25T21:15:24.964Z,10.40
2017-06-25T21:17:51.376Z,9.03
2017-06-25T21:20:17.796Z,10.27
2017-06-25T21:22:44.229Z,9.40
2017-06-25T21:25:10.667Z,9.37
2017-06-25T21:27:37.373Z,9.20
2017-06-25T21:30:03.827Z,8.93
2017-06-25T21:32:30.326Z,12.33
2017-06-25T21:34:56.892Z,9.47
2017-06-25T21:37:23.420Z,8.30
2017-06-25T21:39:49.842Z,9.80
2017-06-25T21:42:17.028Z,10.20
2017-06-25T21:44:43.464Z,10.13
2017-06-25T21:47:09.908Z,10.50
2017-06-25T21:49:36.313Z,10.43
2017-06-25T21:52:02.751Z,10.17
2017-06-25T21:54:29.651Z,9.63
2017-06-25T21:56:56.200Z,9.93
2017-06-25T21:59:22.721Z,13.93
2017-06-25T22:01:49.226Z,8.43
2017-06-25T22:04:15.676Z,9.67
2017-06-25T22:06:42.141Z,4.80
2017-06-25T22:09:09.313Z,5.83
2017-06-25T22:11:35.778Z,5.97
2017-06-25T22:14:02.215Z,4.70
2017-06-25T22:16:28.640Z,4.60
2017-06-25T22:18:55.086Z,6.67
2017-06-25T22:21:21.567Z,4.07
2017-06-25T22:23:48.005Z,8.67
2017-06-25T22:26:14.447Z,5.17
2017-06-25T22:28:40.869Z,2.77
2017-06-25T22:31:07.295Z,4.20
2017-06-25T22:33:34.467Z,5.23
2017-06-25T22:36:00.899Z,4.43
2017-06-25T22:38:27.388Z,6.00
2017-06-25T22:41:08.724Z,5.83
2017-06-25T22:43:35.284Z,2.43
2017-06-25T22:46:01.738Z,2.77
2017-06-25T22:48:28.940Z,2.20
2017-06-25T22:50:55.358Z,1.67
2017-06-25T22:53:21.789Z,1.67
2017-06-25T22:55:48.337Z,3.33
2017-06-25T22:58:14.811Z,4.93
2017-06-25T23:00:41.223Z,5.03
2017-06-25T23:03:07.792Z,1.50
2017-06-25T23:05:34.232Z,3.00
2017-06-25T23:08:00.670Z,3.50
2017-06-25T23:10:27.097Z,3.07
2017-06-25T23:12:53.534Z,3.60
2017-06-25T23:15:20.009Z,2.87
2017-06-25T23:17:46.476Z,2.77
2017-06-25T23:20:12.903Z,3.87
2017-06-25T23:22:39.483Z,3.77
2017-06-25T23:25:06.628Z,2.57
2017-06-25T23:27:33.059Z,2.90
2017-06-25T23:29:59.492Z,2.60
2017-06-25T23:32:25.936Z,1.50
2017-06-25T23:34:52.390Z,3.07
2017-06-25T23:37:18.792Z,2.13
2017-06-25T23:39:45.223Z,4.30
2017-06-25T23:42:12.392Z,2.10
2017-06-25T23:44:40.306Z,4.03
2017-06-25T23:47:06.708Z,1.83
2017-06-25T23:49:33.121Z,1.87
2017-06-25T23:51:59.566Z,1.60
2017-06-25T23:54:25.979Z,1.63
2017-06-25T23:56:52.456Z,1.70
2017-06-25T23:59:18.867Z,3.23
